sensor_id;sensor_type;location;lat;lon;timestamp;pressure;altitude;pressure_sealevel;temperature;humidity
48718;BME280;34521;33.042;-96.586;2023-06-10T00:00:02;98940.93;;;23.85;36.33
48718;BME280;34521;33.042;-96.586;2023-06-10T00:02:27;98937.97;;;23.81;35.85
48718;BME280;34521;33.042;-96.586;2023-06-10T00:04:52;98939.74;;;24.21;36.36
48718;BME280;34521;33.042;-96.586;2023-06-10T00:07:17;98934.97;;;24.63;35.18
48718;BME280;34521;33.042;-96.586;2023-06-10T00:09:42;98936.72;;;25.20;34.36
48718;BME280;34521;33.042;-96.586;2023-06-10T00:12:08;98937.50;;;25.16;34.10
48718;BME280;34521;33.042;-96.586;2023-06-10T00:14:32;98938.75;;;25.22;34.46
48718;BME280;34521;33.042;-96.586;2023-06-10T00:16:57;98936.47;;;25.26;34.52
48718;BME280;34521;33.042;-96.586;2023-06-10T00:19:22;98936.09;;;24.84;35.42
48718;BME280;34521;33.042;-96.586;2023-06-10T00:21:47;98938.54;;;24.02;35.94
48718;BME280;34521;33.042;-96.586;2023-06-10T00:24:12;98931.40;;;24.45;34.63
48718;BME280;34521;33.042;-96.586;2023-06-10T00:26:37;98933.36;;;25.72;33.92
48718;BME280;34521;33.042;-96.586;2023-06-10T00:29:02;98935.61;;;24.72;34.71
48718;BME280;34521;33.042;-96.586;2023-06-10T00:31:27;98935.74;;;25.01;34.72
48718;BME280;34521;33.042;-96.586;2023-06-10T00:33:52;98934.79;;;25.48;34.16
48718;BME280;34521;33.042;-96.586;2023-06-10T00:36:17;98933.35;;;25.30;34.48
48718;BME280;34521;33.042;-96.586;2023-06-10T00:38:42;98929.53;;;24.99;34.37
48718;BME280;34521;33.042;-96.586;2023-06-10T00:41:07;98929.19;;;24.76;35.12
48718;BME280;34521;33.042;-96.586;2023-06-10T00:43:32;98934.76;;;24.12;35.80
48718;BME280;34521;33.042;-96.586;2023-06-10T00:45:57;98936.30;;;24.05;35.33
48718;BME280;34521;33.042;-96.586;2023-06-10T00:48:22;98936.19;;;25.13;34.31
48718;BME280;34521;33.042;-96.586;2023-06-10T00:50:47;98937.37;;;25.06;34.45
48718;BME280;34521;33.042;-96.586;2023-06-10T00:53:13;98935.42;;;24.99;34.23
48718;BME280;34521;33.042;-96.586;2023-06-10T00:55:38;98938.22;;;25.20;34.04
48718;BME280;34521;33.042;-96.586;2023-06-10T00:58:04;98937.66;;;25.00;34.08
48718;BME280;34521;33.042;-96.586;2023-06-10T01:00:27;98934.27;;;25.72;33.35
48718;BME280;34521;33.042;-96.586;2023-06-10T01:02:52;98936.55;;;25.13;34.63
48718;BME280;34521;33.042;-96.586;2023-06-10T01:05:17;98943.26;;;24.12;35.36
48718;BME280;34521;33.042;-96.586;2023-06-10T01:07:50;98943.05;;;24.57;35.20
48718;BME280;34521;33.042;-96.586;2023-06-10T01:10:15;98938.96;;;25.39;33.84
48718;BME280;34521;33.042;-96.586;2023-06-10T01:12:39;98936.80;;;25.26;34.17
48718;BME280;34521;33.042;-96.586;2023-06-10T01:14:59;98934.44;;;24.97;33.98
48718;BME280;34521;33.042;-96.586;2023-06-10T01:17:23;98928.44;;;25.12;33.84
48718;BME280;34521;33.042;-96.586;2023-06-10T01:19:53;98928.23;;;25.45;33.47
48718;BME280;34521;33.042;-96.586;2023-06-10T01:22:13;98932.16;;;25.47;34.18
48718;BME280;34521;33.042;-96.586;2023-06-10T01:24:38;98931.87;;;25.61;34.25
48718;BME280;34521;33.042;-96.586;2023-06-10T01:27:09;98936.77;;;24.68;35.34
48718;BME280;34521;33.042;-96.586;2023-06-10T01:29:33;98936.01;;;24.38;34.60
48718;BME280;34521;33.042;-96.586;2023-06-10T01:32:01;98940.09;;;24.23;35.38
48718;BME280;34521;33.042;-96.586;2023-06-10T01:34:18;98940.89;;;25.02;34.25
48718;BME280;34521;33.042;-96.586;2023-06-10T01:36:46;98942.96;;;24.65;34.79
48718;BME280;34521;33.042;-96.586;2023-06-10T01:39:08;98945.71;;;25.05;33.70
48718;BME280;34521;33.042;-96.586;2023-06-10T01:41:33;98945.12;;;25.60;33.09
48718;BME280;34521;33.042;-96.586;2023-06-10T01:43:58;98944.87;;;25.56;33.50
48718;BME280;34521;33.042;-96.586;2023-06-10T01:46:23;98943.61;;;25.86;33.21
48718;BME280;34521;33.042;-96.586;2023-06-10T01:48:48;98946.85;;;24.76;34.64
48718;BME280;34521;33.042;-96.586;2023-06-10T01:51:13;98950.08;;;24.00;35.77
48718;BME280;34521;33.042;-96.586;2023-06-10T01:53:38;98946.56;;;24.22;34.67
48718;BME280;34521;33.042;-96.586;2023-06-10T01:56:03;98948.19;;;25.13;34.14
48718;BME280;34521;33.042;-96.586;2023-06-10T01:58:28;98950.61;;;25.38;33.66
48718;BME280;34521;33.042;-96.586;2023-06-10T02:00:53;98949.42;;;24.58;34.73
48718;BME280;34521;33.042;-96.586;2023-06-10T02:03:18;98948.46;;;24.53;34.23
48718;BME280;34521;33.042;-96.586;2023-06-10T02:05:43;98950.04;;;25.13;33.51
48718;BME280;34521;33.042;-96.586;2023-06-10T02:08:08;98949.67;;;25.88;32.67
48718;BME280;34521;33.042;-96.586;2023-06-10T02:10:33;98952.58;;;25.69;33.30
48718;BME280;34521;33.042;-96.586;2023-06-10T02:12:58;98953.29;;;25.48;33.36
48718;BME280;34521;33.042;-96.586;2023-06-10T02:15:23;98956.26;;;24.51;34.89
48718;BME280;34521;33.042;-96.586;2023-06-10T02:17:48;98959.48;;;24.26;35.13
48718;BME280;34521;33.042;-96.586;2023-06-10T02:20:13;98961.21;;;24.05;35.22
48718;BME280;34521;33.042;-96.586;2023-06-10T02:22:38;98957.05;;;25.44;33.41
48718;BME280;34521;33.042;-96.586;2023-06-10T02:25:04;98960.62;;;25.12;33.96
48718;BME280;34521;33.042;-96.586;2023-06-10T02:27:29;98962.43;;;25.13;33.74
48718;BME280;34521;33.042;-96.586;2023-06-10T02:29:53;98967.63;;;25.38;33.40
48718;BME280;34521;33.042;-96.586;2023-06-10T02:32:18;98969.75;;;25.62;32.94
48718;BME280;34521;33.042;-96.586;2023-06-10T02:34:43;98974.49;;;25.60;33.32
48718;BME280;34521;33.042;-96.586;2023-06-10T02:37:08;98976.50;;;25.40;33.31
48718;BME280;34521;33.042;-96.586;2023-06-10T02:39:33;98974.40;;;25.21;33.68
48718;BME280;34521;33.042;-96.586;2023-06-10T02:41:59;98976.29;;;24.00;35.27
48718;BME280;34521;33.042;-96.586;2023-06-10T02:44:23;98979.01;;;24.25;34.59
48718;BME280;34521;33.042;-96.586;2023-06-10T02:46:48;98979.70;;;24.81;34.18
48718;BME280;34521;33.042;-96.586;2023-06-10T02:49:13;98984.63;;;24.81;34.02
48718;BME280;34521;33.042;-96.586;2023-06-10T02:51:38;98990.07;;;24.48;34.65
48718;BME280;34521;33.042;-96.586;2023-06-10T02:54:03;98989.34;;;25.32;33.58
48718;BME280;34521;33.042;-96.586;2023-06-10T02:56:28;98987.75;;;25.40;33.21
48718;BME280;34521;33.042;-96.586;2023-06-10T02:58:54;98991.87;;;25.84;32.79
48718;BME280;34521;33.042;-96.586;2023-06-10T03:01:19;98995.16;;;25.47;33.00
48718;BME280;34521;33.042;-96.586;2023-06-10T03:03:44;98993.09;;;26.09;32.92
48718;BME280;34521;33.042;-96.586;2023-06-10T03:06:09;98992.57;;;25.41;33.53
48718;BME280;34521;33.042;-96.586;2023-06-10T03:08:33;98991.98;;;25.96;32.97
48718;BME280;34521;33.042;-96.586;2023-06-10T03:10:59;98997.49;;;24.19;34.89
48718;BME280;34521;33.042;-96.586;2023-06-10T03:13:24;98999.58;;;24.23;34.16
48718;BME280;34521;33.042;-96.586;2023-06-10T03:15:49;99004.98;;;24.72;34.19
48718;BME280;34521;33.042;-96.586;2023-06-10T03:18:14;99005.90;;;24.64;34.23
48718;BME280;34521;33.042;-96.586;2023-06-10T03:20:39;99003.47;;;25.16;33.71
48718;BME280;34521;33.042;-96.586;2023-06-10T03:23:05;99008.54;;;24.92;33.71
48718;BME280;34521;33.042;-96.586;2023-06-10T03:25:29;99011.84;;;25.52;32.98
48718;BME280;34521;33.042;-96.586;2023-06-10T03:27:54;99010.16;;;25.51;32.80
48718;BME280;34521;33.042;-96.586;2023-06-10T03:30:19;99011.79;;;25.32;33.07
48718;BME280;34521;33.042;-96.586;2023-06-10T03:32:44;99010.53;;;25.84;32.84
48718;BME280;34521;33.042;-96.586;2023-06-10T03:35:09;99009.92;;;25.68;32.86
48718;BME280;34521;33.042;-96.586;2023-06-10T03:37:34;99015.01;;;25.31;33.41
48718;BME280;34521;33.042;-96.586;2023-06-10T03:39:59;99022.38;;;23.92;35.18
48718;BME280;34521;33.042;-96.586;2023-06-10T03:42:24;99028.40;;;24.85;33.69
48718;BME280;34521;33.042;-96.586;2023-06-10T03:44:49;99038.77;;;24.71;34.17
48718;BME280;34521;33.042;-96.586;2023-06-10T03:47:14;99044.68;;;24.58;34.46
48718;BME280;34521;33.042;-96.586;2023-06-10T03:49:39;99048.72;;;24.64;34.29
48718;BME280;34521;33.042;-96.586;2023-06-10T03:52:05;99050.91;;;25.06;33.72
48718;BME280;34521;33.042;-96.586;2023-06-10T03:54:29;99054.82;;;24.86;33.72
48718;BME280;34521;33.042;-96.586;2023-06-10T03:56:54;99053.70;;;25.61;32.87
48718;BME280;34521;33.042;-96.586;2023-06-10T03:59:19;99054.34;;;25.51;32.74
48718;BME280;34521;33.042;-96.586;2023-06-10T04:01:44;99049.61;;;25.69;32.59
48718;BME280;34521;33.042;-96.586;2023-06-10T04:04:09;99044.00;;;25.18;33.31
48718;BME280;34521;33.042;-96.586;2023-06-10T04:06:34;99046.25;;;25.95;32.46
48718;BME280;34521;33.042;-96.586;2023-06-10T04:08:59;99046.50;;;24.53;34.43
48718;BME280;34521;33.042;-96.586;2023-06-10T04:11:25;99046.28;;;23.91;35.04
48718;BME280;34521;33.042;-96.586;2023-06-10T04:13:49;99044.36;;;24.16;34.50
48718;BME280;34521;33.042;-96.586;2023-06-10T04:16:15;99043.42;;;24.58;33.60
48718;BME280;34521;33.042;-96.586;2023-06-10T04:18:39;99044.41;;;24.62;33.99
48718;BME280;34521;33.042;-96.586;2023-06-10T04:21:05;99046.46;;;24.86;33.46
48718;BME280;34521;33.042;-96.586;2023-06-10T04:23:30;99042.94;;;24.80;33.55
48718;BME280;34521;33.042;-96.586;2023-06-10T04:25:55;99031.60;;;25.29;32.99
48718;BME280;34521;33.042;-96.586;2023-06-10T04:28:20;99030.04;;;25.17;32.90
48718;BME280;34521;33.042;-96.586;2023-06-10T04:30:45;99034.23;;;25.47;32.68
48718;BME280;34521;33.042;-96.586;2023-06-10T04:33:09;99045.96;;;24.61;35.87
48718;BME280;34521;33.042;-96.586;2023-06-10T04:35:35;99054.42;;;24.43;37.48
48718;BME280;34521;33.042;-96.586;2023-06-10T04:38:00;99060.78;;;24.46;37.45
48718;BME280;34521;33.042;-96.586;2023-06-10T04:40:25;99060.93;;;25.42;35.90
48718;BME280;34521;33.042;-96.586;2023-06-10T04:42:50;99049.74;;;25.31;35.56
48718;BME280;34521;33.042;-96.586;2023-06-10T04:45:15;99043.57;;;25.62;34.88
48718;BME280;34521;33.042;-96.586;2023-06-10T04:47:41;99041.80;;;25.48;35.23
48718;BME280;34521;33.042;-96.586;2023-06-10T04:50:06;99044.66;;;25.43;34.91
48718;BME280;34521;33.042;-96.586;2023-06-10T04:52:30;99056.90;;;23.92;36.55
48718;BME280;34521;33.042;-96.586;2023-06-10T04:54:57;99061.48;;;24.14;35.24
48718;BME280;34521;33.042;-96.586;2023-06-10T04:57:20;99061.88;;;24.84;34.68
48718;BME280;34521;33.042;-96.586;2023-06-10T04:59:45;99065.09;;;24.21;34.86
48718;BME280;34521;33.042;-96.586;2023-06-10T05:02:10;99068.36;;;24.62;35.05
48718;BME280;34521;33.042;-96.586;2023-06-10T05:04:35;99064.21;;;25.03;34.51
48718;BME280;34521;33.042;-96.586;2023-06-10T05:07:00;99055.65;;;25.53;33.93
48718;BME280;34521;33.042;-96.586;2023-06-10T05:09:25;99056.82;;;25.29;33.67
48718;BME280;34521;33.042;-96.586;2023-06-10T05:11:50;99058.66;;;25.54;33.40
48718;BME280;34521;33.042;-96.586;2023-06-10T05:14:15;99056.32;;;25.89;32.97
48718;BME280;34521;33.042;-96.586;2023-06-10T05:16:40;99056.84;;;25.83;33.65
48718;BME280;34521;33.042;-96.586;2023-06-10T05:19:05;99056.46;;;25.55;33.50
48718;BME280;34521;33.042;-96.586;2023-06-10T05:21:30;99057.79;;;25.20;33.84
48718;BME280;34521;33.042;-96.586;2023-06-10T05:23:55;99057.41;;;24.20;34.97
48718;BME280;34521;33.042;-96.586;2023-06-10T05:26:21;99058.15;;;24.35;35.12
48718;BME280;34521;33.042;-96.586;2023-06-10T05:28:45;99061.86;;;25.07;33.78
48718;BME280;34521;33.042;-96.586;2023-06-10T05:31:10;99064.54;;;24.27;34.90
48718;BME280;34521;33.042;-96.586;2023-06-10T05:33:35;99063.20;;;24.91;34.17
48718;BME280;34521;33.042;-96.586;2023-06-10T05:36:01;99064.31;;;24.34;36.11
48718;BME280;34521;33.042;-96.586;2023-06-10T05:38:25;99062.16;;;25.22;35.11
48718;BME280;34521;33.042;-96.586;2023-06-10T05:40:50;99067.86;;;24.92;35.10
48718;BME280;34521;33.042;-96.586;2023-06-10T05:43:15;99069.66;;;25.20;35.03
48718;BME280;34521;33.042;-96.586;2023-06-10T05:45:40;99074.06;;;25.49;34.70
48718;BME280;34521;33.042;-96.586;2023-06-10T05:48:06;99067.32;;;25.69;34.04
48718;BME280;34521;33.042;-96.586;2023-06-10T05:50:31;99061.44;;;25.22;34.29
48718;BME280;34521;33.042;-96.586;2023-06-10T05:52:55;99059.33;;;25.38;34.11
48718;BME280;34521;33.042;-96.586;2023-06-10T05:55:21;99058.72;;;25.29;34.21
48718;BME280;34521;33.042;-96.586;2023-06-10T05:57:45;99064.75;;;24.16;35.76
48718;BME280;34521;33.042;-96.586;2023-06-10T06:00:12;99059.01;;;24.35;35.32
48718;BME280;34521;33.042;-96.586;2023-06-10T06:02:36;99055.31;;;24.17;35.32
48718;BME280;34521;33.042;-96.586;2023-06-10T06:05:00;99058.30;;;24.89;34.11
48718;BME280;34521;33.042;-96.586;2023-06-10T06:07:26;99058.52;;;24.76;34.18
48718;BME280;34521;33.042;-96.586;2023-06-10T06:09:51;99058.02;;;24.73;34.22
48718;BME280;34521;33.042;-96.586;2023-06-10T06:12:16;99058.31;;;25.18;33.98
48718;BME280;34521;33.042;-96.586;2023-06-10T06:14:41;99057.97;;;25.53;33.30
48718;BME280;34521;33.042;-96.586;2023-06-10T06:17:06;99054.73;;;26.05;33.00
48718;BME280;34521;33.042;-96.586;2023-06-10T06:19:31;99051.83;;;25.39;33.57
48718;BME280;34521;33.042;-96.586;2023-06-10T06:21:56;99053.33;;;25.47;33.21
48718;BME280;34521;33.042;-96.586;2023-06-10T06:24:21;99054.42;;;25.98;32.96
48718;BME280;34521;33.042;-96.586;2023-06-10T06:26:46;99056.71;;;25.41;33.35
48718;BME280;34521;33.042;-96.586;2023-06-10T06:29:11;99055.87;;;25.62;33.19
48718;BME280;34521;33.042;-96.586;2023-06-10T06:31:36;99055.50;;;24.77;36.19
48718;BME280;34521;33.042;-96.586;2023-06-10T06:34:01;99057.74;;;24.73;37.18
48718;BME280;34521;33.042;-96.586;2023-06-10T06:36:26;99053.70;;;24.59;37.75
48718;BME280;34521;33.042;-96.586;2023-06-10T06:38:51;99055.69;;;25.01;36.75
48718;BME280;34521;33.042;-96.586;2023-06-10T06:41:16;99060.90;;;24.79;36.58
48718;BME280;34521;33.042;-96.586;2023-06-10T06:43:41;99051.55;;;25.14;36.28
48718;BME280;34521;33.042;-96.586;2023-06-10T06:46:06;99047.50;;;25.28;35.71
48718;BME280;34521;33.042;-96.586;2023-06-10T06:48:31;99044.87;;;25.10;35.88
48718;BME280;34521;33.042;-96.586;2023-06-10T06:50:56;99045.37;;;24.21;36.80
48718;BME280;34521;33.042;-96.586;2023-06-10T06:53:21;99042.31;;;24.01;36.66
48718;BME280;34521;33.042;-96.586;2023-06-10T06:55:46;99038.78;;;23.81;36.59
48718;BME280;34521;33.042;-96.586;2023-06-10T06:58:11;99038.62;;;25.01;34.66
48718;BME280;34521;33.042;-96.586;2023-06-10T07:00:36;99038.93;;;24.05;35.80
48718;BME280;34521;33.042;-96.586;2023-06-10T07:03:01;99033.56;;;24.26;35.88
48718;BME280;34521;33.042;-96.586;2023-06-10T07:05:26;99028.40;;;24.67;35.01
48718;BME280;34521;33.042;-96.586;2023-06-10T07:07:51;99019.94;;;24.78;34.63
48718;BME280;34521;33.042;-96.586;2023-06-10T07:10:17;99019.87;;;25.28;34.58
48718;BME280;34521;33.042;-96.586;2023-06-10T07:12:41;99020.73;;;25.16;34.51
48718;BME280;34521;33.042;-96.586;2023-06-10T07:15:08;99016.92;;;25.27;34.08
48718;BME280;34521;33.042;-96.586;2023-06-10T07:17:31;99012.26;;;25.13;34.24
48718;BME280;34521;33.042;-96.586;2023-06-10T07:19:56;99011.19;;;25.86;33.37
48718;BME280;34521;33.042;-96.586;2023-06-10T07:22:22;99006.21;;;25.42;33.95
48718;BME280;34521;33.042;-96.586;2023-06-10T07:24:47;99006.90;;;25.25;34.17
48718;BME280;34521;33.042;-96.586;2023-06-10T07:27:11;99009.55;;;24.85;37.11
48718;BME280;34521;33.042;-96.586;2023-06-10T07:29:36;99006.30;;;24.19;38.50
48718;BME280;34521;33.042;-96.586;2023-06-10T07:32:02;99002.72;;;24.06;39.13
48718;BME280;34521;33.042;-96.586;2023-06-10T07:34:27;99000.06;;;24.60;39.75
48718;BME280;34521;33.042;-96.586;2023-06-10T07:36:52;98986.93;;;25.61;37.40
48718;BME280;34521;33.042;-96.586;2023-06-10T07:39:17;98980.04;;;25.14;37.81
48718;BME280;34521;33.042;-96.586;2023-06-10T07:41:42;98976.39;;;24.86;37.49
48718;BME280;34521;33.042;-96.586;2023-06-10T07:44:07;98971.92;;;25.10;37.43
48718;BME280;34521;33.042;-96.586;2023-06-10T07:46:32;98965.78;;;25.21;37.38
48718;BME280;34521;33.042;-96.586;2023-06-10T07:48:57;98960.73;;;25.83;36.10
48718;BME280;34521;33.042;-96.586;2023-06-10T07:51:22;98958.18;;;25.80;35.68
48718;BME280;34521;33.042;-96.586;2023-06-10T07:53:47;98953.83;;;25.13;36.36
48718;BME280;34521;33.042;-96.586;2023-06-10T07:56:12;98956.55;;;23.94;37.77
48718;BME280;34521;33.042;-96.586;2023-06-10T07:58:37;98954.57;;;23.65;37.22
48718;BME280;34521;33.042;-96.586;2023-06-10T08:01:02;98944.06;;;25.16;35.07
48718;BME280;34521;33.042;-96.586;2023-06-10T08:03:27;98945.39;;;24.48;35.70
48718;BME280;34521;33.042;-96.586;2023-06-10T08:05:52;98939.42;;;24.36;35.97
48718;BME280;34521;33.042;-96.586;2023-06-10T08:08:17;98936.74;;;24.49;35.76
48718;BME280;34521;33.042;-96.586;2023-06-10T08:10:42;98930.71;;;24.42;35.61
48718;BME280;34521;33.042;-96.586;2023-06-10T08:13:08;98930.03;;;25.12;35.32
48718;BME280;34521;33.042;-96.586;2023-06-10T08:15:32;98926.75;;;25.17;34.61
48718;BME280;34521;33.042;-96.586;2023-06-10T08:17:57;98927.44;;;25.02;34.86
48718;BME280;34521;33.042;-96.586;2023-06-10T08:20:22;98928.66;;;25.00;34.88
48718;BME280;34521;33.042;-96.586;2023-06-10T08:22:47;98925.38;;;25.18;34.73
48718;BME280;34521;33.042;-96.586;2023-06-10T08:25:12;98933.38;;;25.14;35.07
48718;BME280;34521;33.042;-96.586;2023-06-10T08:27:38;98935.75;;;25.46;34.69
48718;BME280;34521;33.042;-96.586;2023-06-10T08:30:03;98935.50;;;24.41;37.70
48718;BME280;34521;33.042;-96.586;2023-06-10T08:32:28;98937.21;;;24.49;38.72
48718;BME280;34521;33.042;-96.586;2023-06-10T08:34:53;98932.15;;;24.05;38.99
48718;BME280;34521;33.042;-96.586;2023-06-10T08:37:18;98921.48;;;25.29;37.21
48718;BME280;34521;33.042;-96.586;2023-06-10T08:39:43;98916.79;;;25.09;37.06
48718;BME280;34521;33.042;-96.586;2023-06-10T08:42:17;98914.85;;;24.96;37.12
48718;BME280;34521;33.042;-96.586;2023-06-10T08:44:33;98911.41;;;25.18;36.75
48718;BME280;34521;33.042;-96.586;2023-06-10T08:47:00;98911.30;;;24.97;36.64
48718;BME280;34521;33.042;-96.586;2023-06-10T08:49:24;98907.86;;;25.56;35.75
48718;BME280;34521;33.042;-96.586;2023-06-10T08:51:50;98902.06;;;25.67;35.82
48718;BME280;34521;33.042;-96.586;2023-06-10T08:54:18;98899.47;;;24.09;37.37
48718;BME280;34521;33.042;-96.586;2023-06-10T08:56:40;98898.67;;;23.26;37.51
48718;BME280;34521;33.042;-96.586;2023-06-10T08:59:03;98891.44;;;23.52;37.49
48718;BME280;34521;33.042;-96.586;2023-06-10T09:01:28;98885.46;;;24.94;35.29
48718;BME280;34521;33.042;-96.586;2023-06-10T09:03:53;98884.20;;;24.64;35.71
48718;BME280;34521;33.042;-96.586;2023-06-10T09:06:18;98879.29;;;25.09;35.22
48718;BME280;34521;33.042;-96.586;2023-06-10T09:08:43;98875.54;;;24.49;36.06
48718;BME280;34521;33.042;-96.586;2023-06-10T09:11:08;98870.09;;;25.06;35.34
48718;BME280;34521;33.042;-96.586;2023-06-10T09:13:33;98871.22;;;24.87;35.28
48718;BME280;34521;33.042;-96.586;2023-06-10T09:15:58;98873.89;;;25.42;34.91
48718;BME280;34521;33.042;-96.586;2023-06-10T09:18:23;98872.45;;;25.43;34.61
48718;BME280;34521;33.042;-96.586;2023-06-10T09:20:48;98873.82;;;25.31;34.82
48718;BME280;34521;33.042;-96.586;2023-06-10T09:23:13;98879.02;;;24.98;34.95
48718;BME280;34521;33.042;-96.586;2023-06-10T09:25:39;98875.83;;;25.16;35.08
48718;BME280;34521;33.042;-96.586;2023-06-10T09:28:04;98877.21;;;24.23;37.86
48718;BME280;34521;33.042;-96.586;2023-06-10T09:30:29;98875.53;;;24.16;38.85
48718;BME280;34521;33.042;-96.586;2023-06-10T09:32:54;98874.97;;;24.19;39.46
48718;BME280;34521;33.042;-96.586;2023-06-10T09:35:18;98865.61;;;24.75;37.41
48718;BME280;34521;33.042;-96.586;2023-06-10T09:37:45;98869.74;;;25.27;37.24
48718;BME280;34521;33.042;-96.586;2023-06-10T09:40:11;98868.50;;;24.82;37.77
48718;BME280;34521;33.042;-96.586;2023-06-10T09:42:35;98860.07;;;24.48;37.51
48718;BME280;34521;33.042;-96.586;2023-06-10T09:44:58;98856.11;;;24.84;37.61
48718;BME280;34521;33.042;-96.586;2023-06-10T09:47:23;98855.50;;;25.13;36.83
48718;BME280;34521;33.042;-96.586;2023-06-10T09:49:49;98852.44;;;25.13;36.69
48718;BME280;34521;33.042;-96.586;2023-06-10T09:52:13;98848.31;;;25.29;36.03
48718;BME280;34521;33.042;-96.586;2023-06-10T09:54:39;98838.68;;;25.35;36.58
48718;BME280;34521;33.042;-96.586;2023-06-10T09:57:08;98838.16;;;25.33;36.23
48718;BME280;34521;33.042;-96.586;2023-06-10T09:59:29;98835.01;;;24.94;36.42
48718;BME280;34521;33.042;-96.586;2023-06-10T10:01:55;98830.95;;;23.11;37.90
48718;BME280;34521;33.042;-96.586;2023-06-10T10:04:23;98826.89;;;23.55;37.22
48718;BME280;34521;33.042;-96.586;2023-06-10T10:06:44;98821.23;;;24.95;35.23
48718;BME280;34521;33.042;-96.586;2023-06-10T10:09:09;98820.99;;;24.55;35.70
48718;BME280;34521;33.042;-96.586;2023-06-10T10:11:34;98814.76;;;24.72;35.57
48718;BME280;34521;33.042;-96.586;2023-06-10T10:13:59;98810.50;;;24.69;35.34
48718;BME280;34521;33.042;-96.586;2023-06-10T10:16:30;98815.18;;;25.14;35.37
48718;BME280;34521;33.042;-96.586;2023-06-10T10:18:54;98805.84;;;24.27;35.93
48718;BME280;34521;33.042;-96.586;2023-06-10T10:21:16;98809.35;;;24.90;35.16
48718;BME280;34521;33.042;-96.586;2023-06-10T10:23:53;98802.37;;;24.29;38.02
48718;BME280;34521;33.042;-96.586;2023-06-10T10:26:10;98807.28;;;23.41;39.87
48718;BME280;34521;33.042;-96.586;2023-06-10T10:28:37;98807.55;;;23.22;40.80
48718;BME280;34521;33.042;-96.586;2023-06-10T10:31:02;98808.65;;;23.51;40.96
48718;BME280;34521;33.042;-96.586;2023-06-10T10:33:25;98802.17;;;24.69;39.24
48718;BME280;34521;33.042;-96.586;2023-06-10T10:35:47;98800.55;;;25.02;37.99
48718;BME280;34521;33.042;-96.586;2023-06-10T10:38:12;98797.40;;;25.38;37.65
48718;BME280;34521;33.042;-96.586;2023-06-10T10:40:37;98793.67;;;24.77;38.08
48718;BME280;34521;33.042;-96.586;2023-06-10T10:43:01;98796.83;;;24.91;37.91
48718;BME280;34521;33.042;-96.586;2023-06-10T10:45:28;98801.10;;;24.95;37.69
48718;BME280;34521;33.042;-96.586;2023-06-10T10:47:53;98798.70;;;25.21;37.19
48718;BME280;34521;33.042;-96.586;2023-06-10T10:50:18;98794.34;;;25.25;36.98
48718;BME280;34521;33.042;-96.586;2023-06-10T10:52:51;98794.72;;;25.23;36.97
48718;BME280;34521;33.042;-96.586;2023-06-10T10:55:12;98793.86;;;25.00;36.89
48718;BME280;34521;33.042;-96.586;2023-06-10T10:57:31;98790.98;;;25.68;35.95
48718;BME280;34521;33.042;-96.586;2023-06-10T10:59:58;98791.26;;;25.32;36.32
48718;BME280;34521;33.042;-96.586;2023-06-10T11:02:33;98795.23;;;25.17;36.48
48718;BME280;34521;33.042;-96.586;2023-06-10T11:04:48;98805.22;;;25.27;36.27
48718;BME280;34521;33.042;-96.586;2023-06-10T11:07:11;98806.74;;;25.48;35.94
48718;BME280;34521;33.042;-96.586;2023-06-10T11:09:36;98811.32;;;25.07;36.08
48718;BME280;34521;33.042;-96.586;2023-06-10T11:12:01;98816.66;;;25.18;35.97
48718;BME280;34521;33.042;-96.586;2023-06-10T11:14:28;98818.40;;;23.49;37.74
48718;BME280;34521;33.042;-96.586;2023-06-10T11:16:52;98822.20;;;23.83;37.25
48718;BME280;34521;33.042;-96.586;2023-06-10T11:19:31;98823.50;;;23.91;37.14
48718;BME280;34521;33.042;-96.586;2023-06-10T11:21:57;98826.84;;;24.72;35.56
48718;BME280;34521;33.042;-96.586;2023-06-10T11:24:13;98830.30;;;24.24;36.33
48718;BME280;34521;33.042;-96.586;2023-06-10T11:26:32;98838.17;;;23.28;39.18
48718;BME280;34521;33.042;-96.586;2023-06-10T11:29:08;98844.45;;;23.83;39.59
48718;BME280;34521;33.042;-96.586;2023-06-10T11:31:23;98847.68;;;23.00;41.29
48718;BME280;34521;33.042;-96.586;2023-06-10T11:33:48;98840.55;;;24.59;38.50
48718;BME280;34521;33.042;-96.586;2023-06-10T11:36:12;98848.55;;;24.52;38.50
48718;BME280;34521;33.042;-96.586;2023-06-10T11:38:37;98848.23;;;24.74;37.67
48718;BME280;34521;33.042;-96.586;2023-06-10T11:41:03;98853.05;;;24.85;37.56
48718;BME280;34521;33.042;-96.586;2023-06-10T11:43:27;98852.76;;;25.11;36.71
48718;BME280;34521;33.042;-96.586;2023-06-10T11:45:55;98854.08;;;25.27;36.72
48718;BME280;34521;33.042;-96.586;2023-06-10T11:48:17;98851.11;;;24.59;36.94
48718;BME280;34521;33.042;-96.586;2023-06-10T11:50:42;98858.63;;;24.64;36.78
48718;BME280;34521;33.042;-96.586;2023-06-10T11:53:09;98862.80;;;25.32;36.49
48718;BME280;34521;33.042;-96.586;2023-06-10T11:55:42;98860.24;;;25.09;36.09
48718;BME280;34521;33.042;-96.586;2023-06-10T11:57:57;98859.27;;;25.02;36.43
48718;BME280;34521;33.042;-96.586;2023-06-10T12:00:22;98861.87;;;25.43;36.23
48718;BME280;34521;33.042;-96.586;2023-06-10T12:02:56;98855.48;;;25.62;35.57
48718;BME280;34521;33.042;-96.586;2023-06-10T12:05:13;98855.96;;;25.64;35.50
48718;BME280;34521;33.042;-96.586;2023-06-10T12:07:37;98865.69;;;24.97;35.98
48718;BME280;34521;33.042;-96.586;2023-06-10T12:10:03;98863.53;;;25.13;35.78
48718;BME280;34521;33.042;-96.586;2023-06-10T12:12:27;98866.85;;;25.27;35.58
48718;BME280;34521;33.042;-96.586;2023-06-10T12:14:55;98861.84;;;25.46;35.27
48718;BME280;34521;33.042;-96.586;2023-06-10T12:17:17;98865.75;;;24.81;36.15
48718;BME280;34521;33.042;-96.586;2023-06-10T12:19:42;98856.70;;;25.70;35.30
48718;BME280;34521;33.042;-96.586;2023-06-10T12:22:07;98855.54;;;25.26;36.99
48718;BME280;34521;33.042;-96.586;2023-06-10T12:24:32;98852.83;;;24.48;38.31
48718;BME280;34521;33.042;-96.586;2023-06-10T12:26:58;98860.55;;;24.88;37.95